Terminal Aerodrome Forecast
Issued by NWS

Home | Current Version | Previous Version | Graphics & Text | Print | Product List | Glossary On
Versions: 1 2 3 4 5 6 7 8 9 10 11 12 13 14
000
FTUS43 KICT 221400 AAA
TAFRSL
TAF AMD
KRSL 221458Z 2215/2312 36005KT P6SM SKC
     FM221530 17008KT P6SM SKC
     FM230600 VRB05KT P6SM SCT100 BKN250
     FM230900 08010KT P6SM BKN015=

USA.gov is the U.S. government's official web portal to all federal, state and local government web resources and services.